createdAt,value
2022-08-12T00:02:04.400Z,18.50
2022-08-12T00:04:52.286Z,18.40
2022-08-12T00:07:38.137Z,18.40
2022-08-12T00:10:24.161Z,18.40
2022-08-12T00:13:09.446Z,18.30
2022-08-12T00:15:55.421Z,18.30
2022-08-12T00:18:41.216Z,18.30
2022-08-12T00:21:26.765Z,18.20
2022-08-12T00:24:13.212Z,18.20
2022-08-12T00:27:01.575Z,18.10
2022-08-12T00:29:48.264Z,18.10
2022-08-12T00:32:50.948Z,18.10
2022-08-12T00:35:39.826Z,18.00
2022-08-12T00:38:25.709Z,18.00
2022-08-12T00:41:12.393Z,18.00
2022-08-12T00:43:41.658Z,18.00
2022-08-12T00:46:26.752Z,17.90
2022-08-12T00:48:54.005Z,17.90
2022-08-12T00:51:21.530Z,17.90
2022-08-12T00:53:48.856Z,17.90
2022-08-12T00:56:15.927Z,17.90
2022-08-12T00:58:47.671Z,17.80
2022-08-12T01:01:16.395Z,17.80
2022-08-12T01:04:07.760Z,17.80
2022-08-12T01:06:54.069Z,17.70
2022-08-12T01:09:40.970Z,17.70
2022-08-12T01:12:09.999Z,17.70
2022-08-12T01:14:37.521Z,17.60
2022-08-12T01:17:04.455Z,17.60
2022-08-12T01:19:31.577Z,17.50
2022-08-12T01:22:41.278Z,17.50
2022-08-12T01:25:12.745Z,17.50
2022-08-12T01:27:41.007Z,17.40
2022-08-12T01:30:10.756Z,17.40
2022-08-12T01:32:40.987Z,17.40
2022-08-12T01:35:11.786Z,17.40
2022-08-12T01:37:48.945Z,17.40
2022-08-12T01:40:35.955Z,17.40
2022-08-12T01:43:09.944Z,17.40
2022-08-12T01:45:46.242Z,17.40
2022-08-12T01:49:00.282Z,17.40
2022-08-12T01:52:15.980Z,17.30
2022-08-12T01:54:27.510Z,17.30
2022-08-12T01:57:13.094Z,17.30
2022-08-12T02:00:01.205Z,17.30
2022-08-12T02:02:39.573Z,17.30
2022-08-12T02:05:49.827Z,17.30
2022-08-12T02:09:05.866Z,17.30
2022-08-12T02:11:51.848Z,17.20
2022-08-12T02:14:42.052Z,17.20
2022-08-12T02:17:17.574Z,17.10
2022-08-12T02:20:05.162Z,17.10
2022-08-12T02:22:41.909Z,17.10
2022-08-12T02:25:08.694Z,17.10
2022-08-12T02:27:42.625Z,17.00
2022-08-12T02:30:12.221Z,17.00
2022-08-12T02:32:42.080Z,16.90
2022-08-12T02:35:19.557Z,16.90
2022-08-12T02:37:48.065Z,16.90
2022-08-12T02:40:17.516Z,16.90
2022-08-12T02:43:12.133Z,16.80
2022-08-12T02:46:00.177Z,16.80
2022-08-12T02:48:40.681Z,16.80
2022-08-12T02:51:10.065Z,16.80
2022-08-12T02:53:38.064Z,16.70
2022-08-12T02:56:06.444Z,16.70
2022-08-12T02:58:35.975Z,16.60
2022-08-12T03:01:11.490Z,16.60
2022-08-12T03:03:40.056Z,16.50
2022-08-12T03:06:21.793Z,16.50
2022-08-12T03:08:53.733Z,16.50
2022-08-12T03:11:31.176Z,16.40
2022-08-12T03:14:02.485Z,16.40
2022-08-12T03:16:33.327Z,16.40
2022-08-12T03:19:00.462Z,16.30
2022-08-12T03:21:55.534Z,16.30
2022-08-12T03:24:18.414Z,16.30
2022-08-12T03:26:47.262Z,16.30
2022-08-12T03:29:16.833Z,16.20
2022-08-12T03:31:44.026Z,16.20
2022-08-12T03:34:14.104Z,16.20
2022-08-12T03:36:42.308Z,16.20
2022-08-12T03:39:17.085Z,16.20
2022-08-12T03:42:01.511Z,16.10
2022-08-12T03:44:53.381Z,16.10
2022-08-12T03:47:49.637Z,16.10
2022-08-12T03:50:36.093Z,16.00
2022-08-12T03:53:24.749Z,16.00
2022-08-12T03:56:10.382Z,16.00
2022-08-12T03:58:56.360Z,16.00
2022-08-12T04:01:23.066Z,15.90
2022-08-12T04:03:53.223Z,15.90
2022-08-12T04:06:34.894Z,15.90
2022-08-12T04:09:16.140Z,15.90
2022-08-12T04:12:03.455Z,15.80
2022-08-12T04:14:30.824Z,15.80
2022-08-12T04:16:57.797Z,15.80
2022-08-12T04:19:26.018Z,15.80
2022-08-12T04:22:01.893Z,15.80
2022-08-12T04:24:35.183Z,15.80
2022-08-12T04:27:08.326Z,15.80
2022-08-12T04:30:30.487Z,15.80
2022-08-12T04:32:26.563Z,15.80
2022-08-12T04:34:53.626Z,15.80
2022-08-12T04:37:20.530Z,15.80
2022-08-12T04:39:48.146Z,15.90
2022-08-12T04:42:15.793Z,15.90
2022-08-12T04:44:42.550Z,15.90
2022-08-12T04:47:14.372Z,15.90
2022-08-12T04:49:44.570Z,15.90
2022-08-12T04:52:11.676Z,16.00
2022-08-12T04:54:38.466Z,16.00
2022-08-12T04:57:05.966Z,16.00
2022-08-12T04:59:48.499Z,16.00
2022-08-12T05:02:21.770Z,16.10
2022-08-12T05:04:51.043Z,16.20
2022-08-12T05:07:17.769Z,16.20
2022-08-12T05:10:00.265Z,16.30
2022-08-12T05:12:34.093Z,16.40
2022-08-12T05:15:00.854Z,16.40
2022-08-12T05:17:28.098Z,16.50
2022-08-12T05:19:57.107Z,16.50
2022-08-12T05:22:24.359Z,16.60
2022-08-12T05:24:50.942Z,16.70
2022-08-12T05:27:17.884Z,16.80
2022-08-12T05:30:07.324Z,16.80
2022-08-12T05:32:36.820Z,16.90
2022-08-12T05:35:06.588Z,17.10
2022-08-12T05:37:34.696Z,17.20
2022-08-12T05:40:08.250Z,17.30
2022-08-12T05:42:36.791Z,17.50
2022-08-12T05:45:03.917Z,17.60
2022-08-12T05:47:52.558Z,17.70
2022-08-12T05:50:17.333Z,17.90
2022-08-12T05:52:44.024Z,18.10
2022-08-12T05:55:11.739Z,18.40
2022-08-12T05:57:39.260Z,19.00
2022-08-12T06:00:06.919Z,19.90
2022-08-12T06:02:35.442Z,20.60
2022-08-12T06:05:02.804Z,21.30
2022-08-12T06:08:00.756Z,21.80
2022-08-12T06:10:31.721Z,22.20
2022-08-12T06:13:02.088Z,22.60
2022-08-12T06:15:29.571Z,22.90
2022-08-12T06:18:13.838Z,23.30
2022-08-12T06:20:43.284Z,23.90
2022-08-12T06:23:11.651Z,24.40
2022-08-12T06:25:38.702Z,24.60
2022-08-12T06:28:21.094Z,25.10
2022-08-12T06:31:08.244Z,26.00
2022-08-12T06:33:57.871Z,27.00
2022-08-12T06:36:29.301Z,27.70
2022-08-12T06:38:57.084Z,28.40
2022-08-12T06:42:30.863Z,29.10
2022-08-12T06:44:30.416Z,29.80
2022-08-12T06:46:58.446Z,30.40
2022-08-12T06:49:25.505Z,31.00
2022-08-12T06:51:56.632Z,31.90
2022-08-12T06:54:30.842Z,33.00
2022-08-12T06:57:04.889Z,34.10
2022-08-12T06:59:42.717Z,35.40
2022-08-12T07:02:09.305Z,36.60
2022-08-12T07:04:39.244Z,37.60
2022-08-12T07:07:10.466Z,38.50
2022-08-12T07:09:59.971Z,39.20
2022-08-12T07:12:28.199Z,39.70
2022-08-12T07:14:56.488Z,40.10
2022-08-12T07:17:23.240Z,40.40
2022-08-12T07:19:51.787Z,40.60
2022-08-12T07:22:18.708Z,40.60
2022-08-12T07:25:05.487Z,40.50
2022-08-12T07:27:38.639Z,40.40
2022-08-12T07:30:07.698Z,40.30
2022-08-12T07:32:34.295Z,40.40
2022-08-12T07:35:03.897Z,40.70
2022-08-12T07:37:31.070Z,40.60
2022-08-12T07:40:00.512Z,40.20
2022-08-12T07:42:29.433Z,40.40
2022-08-12T07:44:56.481Z,40.60
2022-08-12T07:47:23.996Z,40.90
2022-08-12T07:50:05.633Z,41.20
2022-08-12T07:52:35.524Z,41.20
2022-08-12T07:55:03.847Z,41.20
2022-08-12T07:57:32.431Z,41.10
2022-08-12T08:00:06.169Z,41.20
2022-08-12T08:02:33.636Z,41.30
2022-08-12T08:05:00.612Z,41.80
2022-08-12T08:07:30.498Z,41.90
2022-08-12T08:09:59.768Z,41.70
2022-08-12T08:12:48.913Z,41.60
2022-08-12T08:15:16.649Z,41.90
2022-08-12T08:18:02.607Z,42.30
2022-08-12T08:20:33.740Z,43.00
2022-08-12T08:23:07.850Z,43.20
2022-08-12T08:25:38.292Z,43.20
2022-08-12T08:28:17.031Z,43.20
2022-08-12T08:30:46.042Z,43.40
2022-08-12T08:33:23.652Z,43.30
2022-08-12T08:36:02.260Z,43.00
2022-08-12T08:38:32.717Z,42.80
2022-08-12T08:42:17.302Z,42.60
2022-08-12T08:44:10.519Z,42.60
2022-08-12T08:46:37.725Z,43.10
2022-08-12T08:49:05.452Z,43.30
2022-08-12T08:51:32.510Z,43.10
2022-08-12T08:53:59.143Z,43.00
2022-08-12T08:56:27.063Z,42.80
2022-08-12T08:58:53.670Z,42.50
2022-08-12T09:01:22.393Z,42.40
2022-08-12T09:05:07.546Z,42.50
2022-08-12T09:09:23.806Z,43.10
2022-08-12T09:12:12.111Z,43.50
2022-08-12T09:14:50.999Z,43.60
2022-08-12T09:17:21.319Z,44.00
2022-08-12T09:19:57.451Z,44.60
2022-08-12T09:22:29.331Z,44.80
2022-08-12T09:24:56.375Z,45.20
2022-08-12T09:28:03.863Z,44.70
2022-08-12T09:30:15.743Z,43.90
2022-08-12T09:33:05.232Z,43.30
2022-08-12T09:35:33.577Z,42.90
2022-08-12T09:38:28.898Z,41.70
2022-08-12T09:42:07.860Z,40.60
2022-08-12T09:44:05.235Z,40.10
2022-08-12T09:46:34.462Z,40.10
2022-08-12T09:49:04.153Z,40.30
2022-08-12T09:51:44.407Z,40.20
2022-08-12T09:54:32.906Z,40.50
2022-08-12T09:57:03.724Z,40.60
2022-08-12T10:00:14.574Z,40.70
2022-08-12T10:02:53.158Z,40.70
2022-08-12T10:05:22.617Z,40.30
2022-08-12T10:08:11.270Z,40.00
2022-08-12T10:11:07.292Z,39.80
2022-08-12T10:13:42.097Z,39.70
2022-08-12T10:16:28.362Z,39.50
2022-08-12T10:19:17.479Z,39.40
2022-08-12T10:21:45.182Z,39.30
2022-08-12T10:24:15.658Z,39.30
2022-08-12T10:27:06.337Z,39.30
2022-08-12T10:30:38.359Z,39.00
2022-08-12T10:32:44.132Z,38.90
2022-08-12T10:35:15.372Z,38.50
2022-08-12T10:38:34.508Z,38.10
2022-08-12T10:40:33.394Z,38.10
2022-08-12T10:43:19.370Z,38.30
2022-08-12T10:45:49.274Z,38.60
2022-08-12T10:48:21.870Z,38.90
2022-08-12T10:52:03.018Z,39.10
2022-08-12T10:54:00.755Z,39.00
2022-08-12T10:56:34.827Z,38.80
2022-08-12T10:59:10.580Z,38.60
2022-08-12T11:04:19.031Z,38.50
2022-08-12T11:04:39.393Z,38.20
2022-08-12T11:08:33.860Z,38.30
2022-08-12T11:10:01.698Z,38.70
2022-08-12T11:12:55.409Z,39.00
2022-08-12T11:15:20.695Z,39.20
2022-08-12T11:17:52.808Z,39.30
2022-08-12T11:20:24.197Z,39.20
2022-08-12T11:23:03.934Z,39.40
2022-08-12T11:25:56.238Z,39.80
2022-08-12T11:28:20.528Z,40.00
2022-08-12T11:31:01.927Z,39.90
2022-08-12T11:34:04.362Z,39.70
2022-08-12T11:36:16.288Z,39.50
2022-08-12T11:38:43.016Z,39.20
2022-08-12T11:41:31.216Z,38.90
2022-08-12T11:43:59.438Z,38.70
2022-08-12T11:46:46.549Z,38.70
2022-08-12T11:49:30.593Z,38.60
2022-08-12T11:52:00.298Z,38.60
2022-08-12T11:54:29.898Z,38.60
2022-08-12T11:57:02.368Z,38.60
2022-08-12T12:02:20.156Z,38.70
2022-08-12T12:04:52.177Z,38.70
2022-08-12T12:07:22.010Z,38.70
2022-08-12T12:09:52.471Z,38.70
2022-08-12T12:12:25.209Z,38.70
2022-08-12T12:14:54.193Z,38.60
2022-08-12T12:17:25.601Z,38.30
2022-08-12T12:19:53.818Z,38.10
2022-08-12T12:22:23.643Z,38.00
2022-08-12T12:24:58.171Z,37.80
2022-08-12T12:28:04.111Z,37.50
2022-08-12T12:30:18.524Z,37.00
2022-08-12T12:32:56.333Z,36.80
2022-08-12T12:36:18.440Z,36.60
2022-08-12T12:38:12.552Z,36.60
2022-08-12T12:40:44.860Z,36.60
2022-08-12T12:43:13.847Z,36.50
2022-08-12T12:45:44.336Z,36.20
2022-08-12T12:48:18.111Z,35.80
2022-08-12T12:51:09.335Z,35.60
2022-08-12T12:54:08.162Z,35.40
2022-08-12T12:56:31.553Z,35.40
2022-08-12T12:59:02.556Z,35.30
2022-08-12T13:01:33.063Z,35.30
2022-08-12T13:04:03.006Z,35.30
2022-08-12T13:06:31.784Z,35.30
2022-08-12T13:09:02.917Z,35.20
2022-08-12T13:11:35.433Z,35.10
2022-08-12T13:14:12.668Z,35.10
2022-08-12T13:16:43.776Z,35.10
2022-08-12T13:19:10.944Z,35.00
2022-08-12T13:22:01.740Z,34.80
2022-08-12T13:24:31.703Z,34.80
2022-08-12T13:26:58.452Z,34.60
2022-08-12T13:29:25.041Z,34.30
2022-08-12T13:32:18.870Z,34.10
2022-08-12T13:34:42.104Z,34.10
2022-08-12T13:37:09.868Z,34.00
2022-08-12T13:39:37.489Z,34.00
2022-08-12T13:42:13.699Z,33.90
2022-08-12T13:44:41.652Z,33.80
2022-08-12T13:47:12.386Z,33.80
2022-08-12T13:49:55.511Z,33.90
2022-08-12T13:52:23.425Z,33.80
2022-08-12T13:54:54.162Z,33.70
2022-08-12T13:57:25.497Z,33.50
2022-08-12T13:59:55.394Z,33.40
2022-08-12T14:02:24.341Z,33.40
2022-08-12T14:04:56.196Z,33.30
2022-08-12T14:07:25.985Z,33.30
2022-08-12T14:10:12.436Z,33.30
2022-08-12T14:12:54.013Z,33.40
2022-08-12T14:15:20.941Z,33.40
2022-08-12T14:18:21.366Z,33.40
2022-08-12T14:20:50.629Z,33.30
2022-08-12T14:24:04.001Z,33.30
2022-08-12T14:26:20.029Z,33.20
2022-08-12T14:28:57.917Z,33.20
2022-08-12T14:31:31.760Z,33.10
2022-08-12T14:33:59.803Z,33.00
2022-08-12T14:36:26.679Z,33.00
2022-08-12T14:38:54.902Z,33.00
2022-08-12T14:41:25.337Z,32.80
2022-08-12T14:44:06.462Z,32.60
2022-08-12T14:46:55.658Z,32.60
2022-08-12T14:50:00.816Z,32.50
2022-08-12T14:53:11.489Z,32.50
2022-08-12T14:57:57.782Z,32.60
2022-08-12T15:00:47.752Z,32.50
2022-08-12T15:03:20.422Z,32.50
2022-08-12T15:06:06.150Z,32.40
2022-08-12T15:08:38.797Z,32.40
2022-08-12T15:11:10.290Z,32.20
2022-08-12T15:13:39.604Z,32.10
2022-08-12T15:16:06.921Z,32.00
2022-08-12T15:18:36.510Z,32.00
2022-08-12T15:21:11.513Z,31.90
2022-08-12T15:23:45.472Z,31.90
2022-08-12T15:26:28.609Z,31.80
2022-08-12T15:28:57.878Z,31.70
2022-08-12T15:31:28.366Z,31.60
2022-08-12T15:34:11.201Z,31.50
2022-08-12T15:36:53.812Z,31.40
2022-08-12T15:39:21.238Z,31.30
2022-08-12T15:41:49.085Z,31.20
2022-08-12T15:44:38.735Z,31.10
2022-08-12T15:47:04.184Z,31.00
2022-08-12T15:49:34.355Z,30.90
2022-08-12T15:52:27.483Z,30.80
2022-08-12T15:54:58.876Z,30.70
2022-08-12T15:57:26.912Z,30.60
2022-08-12T16:00:04.303Z,30.60
2022-08-12T16:02:50.202Z,30.50
2022-08-12T16:06:11.527Z,30.40
2022-08-12T16:08:17.397Z,30.40
2022-08-12T16:10:45.335Z,30.40
2022-08-12T16:13:14.386Z,30.30
2022-08-12T16:15:51.115Z,30.30
2022-08-12T16:18:31.296Z,30.20
2022-08-12T16:20:58.157Z,30.20
2022-08-12T16:23:51.117Z,30.20
2022-08-12T16:26:14.535Z,30.20
2022-08-12T16:28:43.808Z,30.20
2022-08-12T16:31:14.320Z,30.10
2022-08-12T16:33:58.654Z,30.20
2022-08-12T16:36:28.483Z,30.10
2022-08-12T16:38:55.137Z,30.10
2022-08-12T16:41:22.513Z,30.10
2022-08-12T16:43:50.281Z,30.10
2022-08-12T16:46:31.609Z,30.10
2022-08-12T16:49:08.818Z,30.00
2022-08-12T16:51:45.935Z,30.00
2022-08-12T16:54:35.994Z,30.00
2022-08-12T16:57:05.730Z,30.00
2022-08-12T16:59:54.332Z,30.00
2022-08-12T17:02:31.860Z,30.00
2022-08-12T17:05:03.372Z,29.90
2022-08-12T17:07:36.596Z,29.90
2022-08-12T17:10:06.867Z,29.80
2022-08-12T17:12:33.784Z,29.80
2022-08-12T17:15:50.390Z,29.80
2022-08-12T17:18:15.330Z,29.70
2022-08-12T17:20:46.770Z,29.70
2022-08-12T17:23:19.401Z,29.60
2022-08-12T17:25:52.309Z,29.60
2022-08-12T17:28:21.230Z,29.50
2022-08-12T17:30:54.491Z,29.50
2022-08-12T17:33:27.289Z,29.40
2022-08-12T17:35:58.289Z,29.30
2022-08-12T17:38:25.078Z,29.30
2022-08-12T17:40:52.105Z,29.20
2022-08-12T17:43:56.201Z,29.20
2022-08-12T17:46:12.929Z,29.10
2022-08-12T17:48:54.660Z,29.00
2022-08-12T17:51:23.968Z,28.90
2022-08-12T17:54:05.942Z,28.80
2022-08-12T17:56:40.536Z,28.70
2022-08-12T17:59:12.718Z,28.60
2022-08-12T18:01:44.455Z,28.60
2022-08-12T18:04:22.834Z,28.50
2022-08-12T18:07:01.561Z,28.40
2022-08-12T18:09:32.345Z,28.20
2022-08-12T18:12:24.827Z,28.10
2022-08-12T18:15:01.623Z,28.00
2022-08-12T18:17:29.854Z,27.80
2022-08-12T18:20:05.141Z,27.70
2022-08-12T18:22:34.918Z,27.60
2022-08-12T18:26:12.957Z,27.40
2022-08-12T18:28:15.879Z,27.30
2022-08-12T18:30:52.547Z,27.10
2022-08-12T18:33:24.910Z,27.00
2022-08-12T18:35:55.508Z,26.80
2022-08-12T18:38:25.767Z,26.80
2022-08-12T18:41:22.051Z,26.60
2022-08-12T18:43:58.706Z,26.50
2022-08-12T18:46:57.016Z,26.30
2022-08-12T18:49:35.048Z,26.20
2022-08-12T18:52:08.231Z,26.10
2022-08-12T18:54:41.583Z,25.90
2022-08-12T18:57:19.856Z,25.80
2022-08-12T19:00:06.908Z,25.70
2022-08-12T19:02:40.724Z,25.50
2022-08-12T19:05:10.610Z,25.30
2022-08-12T19:07:49.702Z,25.20
2022-08-12T19:10:25.841Z,25.10
2022-08-12T19:13:15.746Z,25.00
2022-08-12T19:15:45.828Z,24.90
2022-08-12T19:18:13.157Z,24.80
2022-08-12T19:20:41.666Z,24.70
2022-08-12T19:23:16.747Z,24.60
2022-08-12T19:26:00.791Z,24.50
2022-08-12T19:28:34.447Z,24.40
2022-08-12T19:31:57.922Z,24.30
2022-08-12T19:38:06.674Z,24.00
2022-08-12T19:40:32.715Z,23.90
2022-08-12T19:43:18.732Z,23.80
2022-08-12T19:45:53.065Z,23.70
2022-08-12T19:48:23.181Z,23.60
2022-08-12T19:50:53.270Z,23.50
2022-08-12T19:53:22.980Z,23.40
2022-08-12T19:55:52.762Z,23.30
2022-08-12T19:58:20.766Z,23.20
2022-08-12T20:00:53.189Z,23.10
2022-08-12T20:03:39.030Z,23.00
2022-08-12T20:06:13.899Z,22.90
2022-08-12T20:08:49.299Z,22.90
2022-08-12T20:12:13.854Z,22.80
2022-08-12T20:14:18.414Z,22.70
2022-08-12T20:16:56.324Z,22.60
2022-08-12T20:20:02.739Z,22.60
2022-08-12T20:22:23.996Z,22.40
2022-08-12T20:24:56.919Z,22.30
2022-08-12T20:27:29.422Z,22.30
2022-08-12T20:30:12.656Z,22.20
2022-08-12T20:33:00.843Z,22.10
2022-08-12T20:35:38.845Z,22.00
2022-08-12T20:38:27.186Z,21.90
2022-08-12T20:40:54.990Z,21.80
2022-08-12T20:43:24.018Z,21.80
2022-08-12T20:45:57.263Z,21.70
2022-08-12T20:48:25.474Z,21.60
2022-08-12T20:50:55.572Z,21.50
2022-08-12T20:53:27.697Z,21.50
2022-08-12T20:56:19.681Z,21.40
2022-08-12T20:58:46.380Z,21.40
2022-08-12T21:01:18.539Z,21.40
2022-08-12T21:04:05.526Z,21.30
2022-08-12T21:06:51.024Z,21.30
2022-08-12T21:09:22.505Z,21.20
2022-08-12T21:11:56.445Z,21.20
2022-08-12T21:14:39.791Z,21.00
2022-08-12T21:17:18.382Z,21.00
2022-08-12T21:19:52.934Z,20.90
2022-08-12T21:22:24.352Z,20.80
2022-08-12T21:24:52.919Z,20.80
2022-08-12T21:27:19.874Z,20.70
2022-08-12T21:29:54.939Z,20.60
2022-08-12T21:32:39.849Z,20.60
2022-08-12T21:35:08.128Z,20.50
2022-08-12T21:37:37.136Z,20.50
2022-08-12T21:40:13.556Z,20.50
2022-08-12T21:42:42.272Z,20.40
2022-08-12T21:45:46.509Z,20.40
2022-08-12T21:47:59.236Z,20.40
2022-08-12T21:50:29.465Z,20.30
2022-08-12T21:52:57.557Z,20.30
2022-08-12T21:55:28.712Z,20.20
2022-08-12T21:58:02.496Z,20.20
2022-08-12T22:00:34.310Z,20.10
2022-08-12T22:04:01.946Z,20.10
2022-08-12T22:06:20.279Z,20.10
2022-08-12T22:08:59.367Z,20.00
2022-08-12T22:11:41.053Z,20.00
2022-08-12T22:14:10.217Z,19.90
2022-08-12T22:16:47.129Z,19.90
2022-08-12T22:19:19.089Z,19.80
2022-08-12T22:21:52.488Z,19.80
2022-08-12T22:24:27.076Z,19.70
2022-08-12T22:27:18.311Z,19.70
2022-08-12T22:30:07.257Z,19.70
2022-08-12T22:32:38.542Z,19.60
2022-08-12T22:35:24.122Z,19.60
2022-08-12T22:37:55.955Z,19.60
2022-08-12T22:40:22.789Z,19.50
2022-08-12T22:43:15.284Z,19.50
2022-08-12T22:46:00.953Z,19.50
2022-08-12T22:48:27.537Z,19.40
2022-08-12T22:50:57.523Z,19.40
2022-08-12T22:53:26.522Z,19.40
2022-08-12T22:56:06.332Z,19.30
2022-08-12T22:58:36.551Z,19.30
2022-08-12T23:01:04.293Z,19.20
2022-08-12T23:03:48.053Z,19.20
2022-08-12T23:06:23.281Z,19.10
2022-08-12T23:08:51.037Z,19.10
2022-08-12T23:11:23.754Z,19.00
2022-08-12T23:13:56.703Z,19.00
2022-08-12T23:16:31.290Z,19.00
2022-08-12T23:19:11.018Z,19.00
2022-08-12T23:22:05.621Z,18.90
2022-08-12T23:24:55.580Z,18.90
2022-08-12T23:27:52.362Z,18.90
2022-08-12T23:30:31.255Z,18.90
2022-08-12T23:33:00.712Z,18.80
2022-08-12T23:35:45.956Z,18.80
2022-08-12T23:38:30.720Z,18.80
2022-08-12T23:41:02.530Z,18.80
2022-08-12T23:43:39.206Z,18.80
2022-08-12T23:46:08.832Z,18.70
2022-08-12T23:48:37.247Z,18.70
2022-08-12T23:51:22.299Z,18.70
2022-08-12T23:53:50.484Z,18.60
2022-08-12T23:56:17.753Z,18.60
2022-08-12T23:58:52.579Z,18.60
